Main page
METAR-TAF:

METAR-TAF

Airports :

Mary International Airport

Mary, Turkmenistan

latitude: 37-36-24N, longitude: 061-54-05E, elevation: 222 m

Current weather observation

The report was made 53 minutes ago, at 05:00 UTC
Wind 4 kt from the North
Temperature 27°C
Humidity 32%
Pressure 1011 hPa
Visibility 10 km or more
no clouds below 1500 m and no cumulonimbus

METAR: UTAM 250500Z 36004KT CAVOK 27/09 Q1011 NOSIG

Time: 10:53 (05:53 UTC)

Forecast

The report was made 1 hour and 23 minutes ago, at 04:30 UTC
Forecast valid from 25 at 06 UTC to 26 at 06 UTC
Wind 16 kt from the North/Northeast
Visibility 10 km or more
no clouds below 1500 m and no cumulonimbus
Temporary
from 25 at 06 UTC to 25 at 14 UTC
Wind 14 kt from the North with gusts up to 24 kt
Visibility: 3000 m
Low drifting dust
Becoming
from 25 at 15 UTC to 25 at 16 UTC
Wind 12 kt from the North/Northwest
Visibility: 5000 m
Clear sky

TAF: UTAM 250430Z 2506/2606 02016KT CAVOK TEMPO 2506/2514 35014G24KT 3000 DRDU NSC BECMG 2515/2516 34012KT 5000 SKC

Weather observations and forecasts of more than 4000 airports (METAR and TAF reports).

The available stations are represented by yellow and red dots on the map.

Hover mouse over dot to see the name of the station.

Then click to see weather observations and forecasts.

To change the map : click on the green buttons with a black cross to zoom in, on the green button with a dash to zoom out, or on the green arrows for adjacent maps.


METAR-TAF: